createdAt,value
2019-02-19T00:00:41.429Z,988.07
2019-02-19T00:01:41.421Z,988.00
2019-02-19T00:02:41.420Z,987.98
2019-02-19T00:03:41.920Z,987.92
2019-02-19T00:04:44.919Z,987.92
2019-02-19T00:05:41.919Z,987.96
2019-02-19T00:06:41.919Z,987.93
2019-02-19T00:07:42.419Z,987.93
2019-02-19T00:08:42.427Z,987.93
2019-02-19T00:10:07.418Z,987.96
2019-02-19T00:10:42.418Z,987.96
2019-02-19T00:11:42.919Z,987.99
2019-02-19T00:13:03.922Z,987.96
2019-02-19T00:13:42.920Z,987.89
2019-02-19T00:14:42.917Z,987.96
2019-02-19T00:17:20.093Z,987.96
2019-02-19T00:18:19.168Z,987.99
2019-02-19T00:19:19.159Z,987.97
2019-02-19T00:20:19.157Z,987.98
2019-02-19T00:21:22.658Z,987.99
2019-02-19T00:22:19.666Z,988.03
2019-02-19T00:23:19.667Z,988.03
2019-02-19T00:24:19.658Z,988.04
2019-02-19T00:25:21.113Z,988.08
2019-02-19T00:26:24.158Z,988.04
2019-02-19T00:27:20.156Z,988.07
2019-02-19T00:28:24.592Z,988.08
2019-02-19T00:29:20.157Z,988.04
2019-02-19T00:30:41.659Z,988.05
2019-02-19T00:31:20.655Z,988.02
2019-02-19T00:32:24.155Z,988.03
2019-02-19T00:33:20.657Z,988.03
2019-02-19T00:34:21.157Z,988.00
2019-02-19T00:35:42.157Z,988.03
2019-02-19T00:36:21.157Z,988.00
2019-02-19T00:37:25.157Z,987.99
2019-02-19T00:38:21.667Z,987.95
2019-02-19T00:39:42.664Z,987.97
2019-02-19T00:40:42.656Z,988.00
2019-02-19T00:41:21.658Z,987.96
2019-02-19T00:42:46.656Z,988.00
2019-02-19T00:43:22.156Z,987.98
2019-02-19T00:44:22.155Z,988.01
2019-02-19T00:45:22.155Z,988.03
2019-02-19T00:46:22.657Z,988.06
2019-02-19T00:47:22.654Z,988.02
2019-02-19T00:48:26.166Z,988.01
2019-02-19T00:49:22.663Z,988.06
2019-02-19T00:50:44.155Z,988.06
2019-02-19T00:51:23.155Z,988.09
2019-02-19T00:52:34.593Z,988.10
2019-02-19T00:53:23.154Z,988.09
2019-02-19T00:54:27.154Z,988.08
2019-02-19T00:55:23.654Z,988.11
2019-02-19T00:56:44.654Z,988.12
2019-02-19T00:57:23.651Z,988.15
2019-02-19T00:58:24.161Z,988.09
2019-02-19T00:59:48.653Z,988.11
2019-02-19T01:00:24.154Z,988.06
2019-02-19T01:01:24.153Z,988.10
2019-02-19T01:02:24.682Z,988.10
2019-02-19T01:03:24.653Z,988.05
2019-02-19T01:04:24.653Z,988.03
2019-02-19T01:05:50.591Z,988.05
2019-02-19T01:06:46.156Z,988.02
2019-02-19T01:07:25.156Z,988.01
2019-02-19T01:08:25.158Z,988.03
2019-02-19T01:09:25.153Z,988.01
2019-02-19T01:10:25.152Z,988.11
2019-02-19T01:13:01.389Z,987.97
2019-02-19T01:14:01.426Z,987.97
2019-02-19T01:15:01.391Z,987.96
2019-02-19T01:16:01.891Z,987.97
2019-02-19T01:17:05.390Z,987.98
2019-02-19T01:18:01.890Z,987.94
2019-02-19T01:19:01.889Z,987.97
2019-02-19T01:20:02.390Z,988.00
2019-02-19T01:21:03.370Z,987.99
2019-02-19T01:22:27.393Z,987.96
2019-02-19T01:23:02.390Z,987.99
2019-02-19T01:24:02.892Z,987.96
2019-02-19T01:25:02.889Z,987.95
2019-02-19T01:26:02.228Z,987.97
2019-02-19T01:27:04.890Z,987.91
2019-02-19T01:29:37.648Z,987.95
2019-02-19T01:32:09.119Z,987.89
2019-02-19T01:33:33.627Z,987.86
2019-02-19T01:34:09.133Z,987.91
2019-02-19T01:35:09.625Z,987.90
2019-02-19T01:37:40.969Z,987.92
2019-02-19T01:38:45.911Z,987.92
2019-02-19T01:39:40.976Z,987.93
2019-02-19T01:40:41.476Z,987.90
2019-02-19T01:41:41.477Z,987.94
2019-02-19T01:42:41.474Z,987.96
2019-02-19T01:43:41.525Z,987.98
2019-02-19T01:44:44.974Z,987.92
2019-02-19T01:47:14.648Z,987.97
2019-02-19T01:48:13.204Z,987.98
2019-02-19T01:49:13.204Z,987.98
2019-02-19T01:50:16.712Z,987.95
2019-02-19T01:51:13.703Z,987.99
2019-02-19T01:52:13.749Z,987.92
2019-02-19T01:53:34.703Z,987.96
2019-02-19T01:54:14.204Z,987.95
2019-02-19T01:55:17.707Z,987.92
2019-02-19T01:56:14.203Z,987.94
2019-02-19T01:57:14.205Z,987.94
2019-02-19T01:58:14.705Z,987.90
2019-02-19T01:59:14.702Z,987.94
2019-02-19T02:00:40.169Z,987.91
2019-02-19T02:01:14.704Z,987.91
2019-02-19T02:02:14.701Z,987.88
2019-02-19T02:04:46.923Z,987.89
2019-02-19T02:05:50.428Z,987.89
2019-02-19T02:06:46.935Z,987.94
2019-02-19T02:08:09.408Z,987.91
2019-02-19T02:08:49.868Z,987.91
2019-02-19T02:10:08.428Z,987.90
2019-02-19T02:10:47.431Z,987.91
2019-02-19T02:11:51.426Z,987.85
2019-02-19T02:13:08.928Z,987.92
2019-02-19T02:14:08.935Z,987.91
2019-02-19T02:14:47.927Z,987.88
2019-02-19T02:17:24.125Z,987.86
2019-02-19T02:18:20.155Z,987.85
2019-02-19T02:19:41.159Z,987.84
2019-02-19T02:20:20.156Z,987.80
2019-02-19T02:21:41.698Z,987.82
2019-02-19T02:22:24.157Z,987.79
2019-02-19T02:23:41.653Z,987.76
2019-02-19T02:24:20.653Z,987.75
2019-02-19T02:25:20.654Z,987.74
2019-02-19T02:26:42.168Z,987.75
2019-02-19T02:27:21.154Z,987.72
2019-02-19T02:28:25.153Z,987.74
2019-02-19T02:29:21.153Z,987.74
2019-02-19T02:30:21.654Z,987.76
2019-02-19T02:31:21.658Z,987.68
2019-02-19T02:32:21.657Z,987.74
2019-02-19T02:33:21.225Z,987.76
2019-02-19T02:34:25.154Z,987.70
2019-02-19T02:35:43.151Z,987.72
2019-02-19T02:36:22.160Z,987.72
2019-02-19T02:37:22.153Z,987.73
2019-02-19T02:38:22.652Z,987.73
2019-02-19T02:40:57.822Z,987.80
2019-02-19T02:42:18.827Z,987.78
2019-02-19T02:42:57.828Z,987.76
2019-02-19T02:44:19.326Z,987.78
2019-02-19T02:45:02.326Z,987.81
2019-02-19T02:45:58.327Z,987.79
2019-02-19T02:46:58.327Z,987.77
2019-02-19T02:48:19.828Z,987.77
2019-02-19T02:48:58.831Z,987.77
2019-02-19T02:50:23.329Z,987.79
2019-02-19T02:50:58.825Z,987.75
2019-02-19T02:51:59.326Z,987.73
2019-02-19T02:52:59.328Z,987.74
2019-02-19T02:53:59.324Z,987.73
2019-02-19T02:54:59.324Z,987.80
2019-02-19T02:56:03.329Z,987.78
2019-02-19T02:56:59.825Z,987.76
2019-02-19T02:57:59.837Z,987.79
2019-02-19T02:58:59.870Z,987.76
2019-02-19T03:01:36.069Z,987.75
2019-02-19T03:02:32.045Z,987.76
2019-02-19T03:03:32.046Z,987.78
2019-02-19T03:06:03.776Z,987.76
2019-02-19T03:07:07.286Z,987.79
2019-02-19T03:08:03.778Z,987.76
2019-02-19T03:09:04.280Z,987.73
2019-02-19T03:10:25.281Z,987.71
2019-02-19T03:11:04.292Z,987.72
2019-02-19T03:12:04.280Z,987.69
2019-02-19T03:13:29.290Z,987.72
2019-02-19T03:14:25.781Z,987.71
2019-02-19T03:15:04.782Z,987.67
2019-02-19T03:16:04.783Z,987.72
2019-02-19T03:18:43.004Z,987.70
2019-02-19T03:19:37.507Z,987.69
2019-02-19T03:20:37.508Z,987.72
2019-02-19T03:21:37.521Z,987.69
2019-02-19T03:25:45.504Z,987.64
2019-02-19T03:26:45.512Z,987.63
2019-02-19T03:27:45.512Z,987.67
2019-02-19T03:28:46.015Z,987.65
2019-02-19T03:30:10.013Z,987.67
2019-02-19T03:30:46.013Z,987.73
2019-02-19T03:31:46.013Z,987.69
2019-02-19T03:32:46.538Z,987.71
2019-02-19T03:33:46.580Z,987.69
2019-02-19T03:34:50.511Z,987.73
2019-02-19T03:35:47.972Z,987.70
2019-02-19T03:36:46.511Z,987.75
2019-02-19T03:37:46.511Z,987.72
2019-02-19T03:38:47.041Z,987.73
2019-02-19T03:39:47.013Z,987.76
2019-02-19T03:41:11.510Z,987.74
2019-02-19T03:41:47.010Z,987.72
2019-02-19T03:42:47.525Z,987.73
2019-02-19T03:43:47.508Z,987.75
2019-02-19T03:44:47.511Z,987.71
2019-02-19T03:45:51.511Z,987.70
2019-02-19T03:46:48.009Z,987.68
2019-02-19T03:48:09.017Z,987.68
2019-02-19T03:49:09.011Z,987.69
2019-02-19T03:49:48.018Z,987.71
2019-02-19T03:51:13.016Z,987.69
2019-02-19T03:51:50.444Z,987.61
2019-02-19T03:53:09.508Z,987.59
2019-02-19T03:54:09.509Z,987.58
2019-02-19T03:54:49.976Z,987.54
2019-02-19T03:56:10.017Z,987.55
2019-02-19T03:56:53.017Z,987.55
2019-02-19T03:57:49.007Z,987.60
2019-02-19T03:58:49.007Z,987.59
2019-02-19T03:59:49.506Z,987.56
2019-02-19T04:01:10.507Z,987.58
2019-02-19T04:02:14.011Z,987.62
2019-02-19T04:02:49.507Z,987.61
2019-02-19T04:04:11.014Z,987.60
2019-02-19T04:06:21.891Z,987.65
2019-02-19T04:07:25.371Z,987.64
2019-02-19T04:08:21.937Z,987.63
2019-02-19T04:09:21.872Z,987.63
2019-02-19T04:10:21.869Z,987.59
2019-02-19T04:11:22.372Z,987.61
2019-02-19T04:12:45.872Z,987.61
2019-02-19T04:13:22.370Z,987.64
2019-02-19T04:14:22.367Z,987.63
2019-02-19T04:15:43.877Z,987.60
2019-02-19T04:16:22.931Z,987.68
2019-02-19T04:17:22.869Z,987.68
2019-02-19T04:19:58.575Z,987.70
2019-02-19T04:21:19.586Z,987.69
2019-02-19T04:22:12.585Z,987.69
2019-02-19T04:22:58.592Z,987.68
2019-02-19T04:24:02.083Z,987.67
2019-02-19T04:25:20.096Z,987.68
2019-02-19T04:25:59.086Z,987.69
2019-02-19T04:27:20.090Z,987.69
2019-02-19T04:28:20.585Z,987.69
2019-02-19T04:29:03.583Z,987.64
2019-02-19T04:29:59.582Z,987.67
2019-02-19T04:30:59.582Z,987.65
2019-02-19T04:32:00.091Z,987.66
2019-02-19T04:33:00.082Z,987.68
2019-02-19T04:34:00.088Z,987.66
2019-02-19T04:35:24.592Z,987.67
2019-02-19T04:36:00.589Z,987.62
2019-02-19T04:37:21.593Z,987.69
2019-02-19T04:38:00.586Z,987.64
2019-02-19T04:39:00.583Z,987.68
2019-02-19T04:40:25.583Z,987.66
2019-02-19T04:41:01.080Z,987.75
2019-02-19T04:42:01.088Z,987.70
2019-02-19T04:43:01.090Z,987.74
2019-02-19T04:44:01.580Z,987.74
2019-02-19T04:45:32.080Z,987.75
2019-02-19T04:46:01.597Z,987.70
2019-02-19T04:47:01.583Z,987.71
2019-02-19T04:48:02.084Z,987.69
2019-02-19T04:49:02.085Z,987.68
2019-02-19T04:50:02.081Z,987.67
2019-02-19T04:51:26.646Z,987.65
2019-02-19T04:53:34.243Z,987.72
2019-02-19T04:54:34.272Z,987.76
2019-02-19T04:55:34.256Z,987.75
2019-02-19T04:56:59.253Z,987.72
2019-02-19T04:57:34.753Z,987.77
2019-02-19T04:58:34.752Z,987.83
2019-02-19T04:59:34.754Z,987.86
2019-02-19T05:00:34.761Z,987.87
2019-02-19T05:01:35.252Z,987.84
2019-02-19T05:02:59.255Z,987.83
2019-02-19T05:03:56.256Z,987.85
2019-02-19T05:04:35.251Z,987.76
2019-02-19T05:05:35.757Z,987.78
2019-02-19T05:06:35.753Z,987.71
2019-02-19T05:08:00.250Z,987.71
2019-02-19T05:08:35.753Z,987.69
2019-02-19T05:09:36.259Z,987.72
2019-02-19T05:10:36.267Z,987.70
2019-02-19T05:11:36.250Z,987.73
2019-02-19T05:12:36.251Z,987.67
2019-02-19T05:13:42.752Z,987.72
2019-02-19T05:14:36.747Z,987.74
2019-02-19T05:15:36.755Z,987.75
2019-02-19T05:16:40.789Z,987.78
2019-02-19T05:17:37.250Z,987.81
2019-02-19T05:18:37.250Z,987.84
2019-02-19T05:19:40.250Z,987.84
2019-02-19T05:20:37.258Z,987.86
2019-02-19T05:22:02.224Z,987.87
2019-02-19T05:24:09.075Z,987.89
2019-02-19T05:25:13.082Z,987.92
2019-02-19T05:26:09.080Z,987.89
2019-02-19T05:27:14.515Z,987.85
2019-02-19T05:29:41.924Z,987.88
2019-02-19T05:30:45.932Z,987.88
2019-02-19T05:31:41.929Z,987.88
2019-02-19T05:32:41.929Z,987.87
2019-02-19T05:33:42.429Z,987.91
2019-02-19T05:34:42.427Z,987.91
2019-02-19T05:35:42.442Z,987.92
2019-02-19T05:36:45.928Z,987.93
2019-02-19T05:37:42.930Z,988.00
2019-02-19T05:38:42.927Z,987.98
2019-02-19T05:39:42.927Z,987.96
2019-02-19T05:40:42.931Z,987.99
2019-02-19T05:41:46.931Z,987.97
2019-02-19T05:42:43.427Z,987.91
2019-02-19T05:43:43.426Z,987.98
2019-02-19T05:44:43.428Z,987.97
2019-02-19T05:46:04.927Z,988.00
2019-02-19T05:46:49.819Z,987.97
2019-02-19T05:47:43.926Z,987.98
2019-02-19T05:48:43.926Z,987.99
2019-02-19T05:49:44.428Z,988.01
2019-02-19T05:51:07.433Z,987.98
2019-02-19T05:51:48.435Z,987.98
2019-02-19T05:52:44.428Z,987.99
2019-02-19T05:55:16.715Z,987.95
2019-02-19T05:56:16.654Z,988.00
2019-02-19T05:57:19.656Z,988.06
2019-02-19T05:58:16.654Z,988.06
2019-02-19T05:59:18.109Z,988.04
2019-02-19T06:00:17.156Z,988.09
2019-02-19T06:01:17.153Z,988.14
2019-02-19T06:02:21.191Z,988.18
2019-02-19T06:03:17.154Z,988.13
2019-02-19T06:04:17.153Z,988.13
2019-02-19T06:05:38.654Z,988.15
2019-02-19T06:06:19.653Z,988.15
2019-02-19T06:07:42.153Z,988.13
2019-02-19T06:08:17.652Z,988.12
2019-02-19T06:09:18.153Z,988.13
2019-02-19T06:10:18.158Z,988.11
2019-02-19T06:11:18.152Z,988.15
2019-02-19T06:12:22.152Z,988.12
2019-02-19T06:13:39.657Z,988.12
2019-02-19T06:14:18.656Z,988.18
2019-02-19T06:15:31.090Z,988.13
2019-02-19T06:16:18.651Z,988.14
2019-02-19T06:17:19.154Z,988.20
2019-02-19T06:18:22.156Z,988.16
2019-02-19T06:19:19.151Z,988.17
2019-02-19T06:20:19.152Z,988.19
2019-02-19T06:21:19.653Z,988.14
2019-02-19T06:22:19.651Z,988.16
2019-02-19T06:23:23.669Z,988.18
2019-02-19T06:24:19.654Z,988.23
2019-02-19T06:25:19.241Z,988.35
2019-02-19T06:26:20.166Z,988.39
2019-02-19T06:27:20.151Z,988.35
2019-02-19T06:28:20.150Z,988.29
2019-02-19T06:29:24.150Z,988.32
2019-02-19T06:30:41.650Z,988.37
2019-02-19T06:31:41.682Z,988.40
2019-02-19T06:32:41.650Z,988.31
2019-02-19T06:33:35.154Z,988.37
2019-02-19T06:34:21.150Z,988.37
2019-02-19T06:35:45.653Z,988.29
2019-02-19T06:36:21.150Z,988.34
2019-02-19T06:37:21.652Z,988.36
2019-02-19T06:38:21.649Z,988.33
2019-02-19T06:39:24.583Z,988.35
2019-02-19T06:40:25.648Z,988.38
2019-02-19T06:41:22.150Z,988.32
2019-02-19T06:42:22.150Z,988.39
2019-02-19T06:43:22.148Z,988.40
2019-02-19T06:44:22.149Z,988.44
2019-02-19T06:45:28.653Z,988.48
2019-02-19T06:46:26.656Z,988.49
2019-02-19T06:47:43.651Z,988.49
2019-02-19T06:48:22.648Z,988.48
2019-02-19T06:49:24.623Z,988.52
2019-02-19T06:50:23.156Z,988.52
2019-02-19T06:51:23.148Z,988.53
2019-02-19T06:52:26.652Z,988.49
2019-02-19T06:53:23.150Z,988.50
2019-02-19T06:54:25.121Z,988.49
2019-02-19T06:56:55.966Z,988.50
2019-02-19T06:57:58.981Z,988.51
2019-02-19T06:58:57.926Z,988.56
2019-02-19T06:59:56.009Z,988.56
2019-02-19T07:00:56.023Z,988.56
2019-02-19T07:01:58.907Z,988.61
2019-02-19T07:03:21.475Z,988.60
2019-02-19T07:03:56.475Z,988.67
2019-02-19T07:04:55.935Z,988.70
2019-02-19T07:05:57.925Z,988.68
2019-02-19T07:07:17.970Z,988.70
2019-02-19T07:07:56.973Z,988.77
2019-02-19T07:09:22.473Z,988.73
2019-02-19T07:10:18.480Z,988.79
2019-02-19T07:10:57.473Z,988.79
2019-02-19T07:11:58.851Z,988.81
2019-02-19T07:14:33.068Z,988.88
2019-02-19T07:15:29.584Z,988.87
2019-02-19T07:16:29.584Z,988.85
2019-02-19T07:17:32.071Z,988.88
2019-02-19T07:18:30.074Z,988.89
2019-02-19T07:19:55.073Z,988.91
2019-02-19T07:20:30.081Z,988.89
2019-02-19T07:21:30.573Z,988.91
2019-02-19T07:22:30.573Z,988.90
2019-02-19T07:23:31.524Z,988.89
2019-02-19T07:24:30.573Z,988.91
2019-02-19T07:25:33.072Z,988.89
2019-02-19T07:26:53.007Z,988.93
2019-02-19T07:27:31.072Z,988.91
2019-02-19T07:28:31.073Z,988.88
2019-02-19T07:29:30.544Z,988.90
2019-02-19T07:30:35.074Z,988.89
2019-02-19T07:31:33.046Z,988.97
2019-02-19T07:32:31.573Z,988.93
2019-02-19T07:33:31.606Z,988.89
2019-02-19T07:34:52.572Z,988.94
2019-02-19T07:35:31.571Z,988.91
2019-02-19T07:36:35.072Z,988.88
2019-02-19T07:37:32.071Z,988.90
2019-02-19T07:38:53.071Z,988.93
2019-02-19T07:39:32.072Z,988.96
2019-02-19T07:40:32.571Z,988.98
2019-02-19T07:41:36.133Z,989.01
2019-02-19T07:42:32.579Z,989.00
2019-02-19T07:43:32.572Z,989.03
2019-02-19T07:44:33.071Z,989.12
2019-02-19T07:45:33.077Z,989.14
2019-02-19T07:46:33.077Z,989.17
2019-02-19T07:47:37.080Z,989.18
2019-02-19T07:48:33.578Z,989.20
2019-02-19T07:49:33.570Z,989.24
2019-02-19T07:50:33.571Z,989.25
2019-02-19T07:51:33.570Z,989.24
2019-02-19T07:52:58.570Z,989.26
2019-02-19T07:55:06.494Z,989.27
2019-02-19T07:56:27.431Z,989.19
2019-02-19T07:57:06.430Z,989.18
2019-02-19T07:58:09.931Z,989.17
2019-02-19T07:59:20.934Z,989.22
2019-02-19T08:00:06.934Z,989.26
2019-02-19T08:01:06.930Z,989.32
2019-02-19T08:02:06.930Z,989.37
2019-02-19T08:03:11.445Z,989.38
2019-02-19T08:04:08.363Z,989.37
2019-02-19T08:05:07.430Z,989.34
2019-02-19T08:06:07.429Z,989.35
2019-02-19T08:07:28.930Z,989.36
2019-02-19T08:08:07.930Z,989.40
2019-02-19T08:09:31.930Z,989.39
2019-02-19T08:10:07.929Z,989.35
2019-02-19T08:11:08.429Z,989.37
2019-02-19T08:12:31.429Z,989.35
2019-02-19T08:13:08.428Z,989.32
2019-02-19T08:14:12.427Z,989.31
2019-02-19T08:15:29.932Z,989.30
2019-02-19T08:16:08.928Z,989.34
2019-02-19T08:17:09.862Z,989.32
2019-02-19T08:18:08.935Z,989.28
2019-02-19T08:19:33.931Z,989.30
2019-02-19T08:20:15.342Z,989.27
2019-02-19T08:21:09.428Z,989.33
2019-02-19T08:22:09.429Z,989.39
2019-02-19T08:23:30.949Z,989.41
2019-02-19T08:24:09.927Z,989.45
2019-02-19T08:25:13.428Z,989.48
2019-02-19T08:26:09.930Z,989.47
2019-02-19T08:27:10.513Z,989.46
2019-02-19T08:28:31.433Z,989.48
2019-02-19T08:30:46.321Z,989.47
2019-02-19T08:31:42.293Z,989.49
2019-02-19T08:32:43.245Z,989.50
2019-02-19T08:33:42.293Z,989.54
2019-02-19T08:34:42.296Z,989.52
2019-02-19T08:37:17.976Z,989.55
2019-02-19T08:38:17.993Z,989.57
2019-02-19T08:39:17.982Z,989.58
2019-02-19T08:40:39.484Z,989.52
2019-02-19T08:41:21.983Z,989.56
2019-02-19T08:42:18.486Z,989.52
2019-02-19T08:43:18.483Z,989.51
2019-02-19T08:44:18.991Z,989.52
2019-02-19T08:45:18.982Z,989.50
2019-02-19T08:46:22.983Z,989.53
2019-02-19T08:47:18.983Z,989.58
2019-02-19T08:48:40.494Z,989.52
2019-02-19T08:49:19.482Z,989.58
2019-02-19T08:50:19.483Z,989.54
2019-02-19T08:51:19.483Z,989.50
2019-02-19T08:52:22.985Z,989.51
2019-02-19T08:53:19.982Z,989.55
2019-02-19T08:54:19.983Z,989.55
2019-02-19T08:55:20.030Z,989.56
2019-02-19T08:56:20.485Z,989.57
2019-02-19T08:57:24.482Z,989.57
2019-02-19T08:58:20.513Z,989.65
2019-02-19T08:59:20.492Z,989.62
2019-02-19T09:00:20.088Z,989.64
2019-02-19T09:01:21.916Z,989.67
2019-02-19T09:02:20.982Z,989.65
2019-02-19T09:03:25.943Z,989.71
2019-02-19T09:04:21.489Z,989.66
2019-02-19T09:05:21.486Z,989.70
2019-02-19T09:06:21.482Z,989.68
2019-02-19T09:07:20.821Z,989.71
2019-02-19T09:08:25.486Z,989.82
2019-02-19T09:09:21.486Z,989.73
2019-02-19T09:10:21.981Z,989.69
2019-02-19T09:11:21.984Z,989.72
2019-02-19T09:12:21.317Z,989.74
2019-02-19T09:13:21.985Z,989.75
2019-02-19T09:15:57.305Z,989.77
2019-02-19T09:16:57.314Z,989.84
2019-02-19T09:17:57.364Z,989.83
2019-02-19T09:19:18.309Z,989.87
2019-02-19T09:20:00.762Z,989.92
2019-02-19T09:21:18.862Z,989.94
2019-02-19T09:21:57.808Z,990.01
2019-02-19T09:22:57.808Z,989.94
2019-02-19T09:23:58.507Z,989.96
2019-02-19T09:25:02.323Z,990.03
2019-02-19T09:25:58.308Z,989.99
2019-02-19T09:27:19.312Z,990.02
2019-02-19T09:27:58.311Z,989.99
2019-02-19T09:29:22.242Z,989.94
2019-02-19T09:29:58.813Z,990.03
2019-02-19T09:31:01.457Z,989.99
2019-02-19T09:31:58.824Z,989.96
2019-02-19T09:34:31.034Z,989.95
2019-02-19T09:35:52.045Z,989.96
2019-02-19T09:36:56.042Z,990.01
2019-02-19T09:37:31.541Z,990.02
2019-02-19T09:38:31.543Z,990.04
2019-02-19T09:39:31.550Z,990.06
2019-02-19T09:40:33.455Z,990.06
2019-02-19T09:41:32.047Z,990.09
2019-02-19T09:42:36.065Z,990.05
2019-02-19T09:43:35.454Z,990.09
2019-02-19T09:44:32.041Z,990.02
2019-02-19T09:45:32.541Z,990.05
2019-02-19T09:46:33.517Z,990.07
2019-02-19T09:47:37.040Z,990.07
2019-02-19T09:48:32.540Z,990.09
2019-02-19T09:49:33.041Z,990.08
2019-02-19T09:50:33.047Z,990.13
2019-02-19T09:51:33.047Z,990.17
2019-02-19T09:52:37.053Z,990.17
2019-02-19T09:53:33.543Z,990.19
2019-02-19T09:54:33.541Z,990.21
2019-02-19T09:55:33.537Z,990.21
2019-02-19T09:56:33.538Z,990.14
2019-02-19T09:57:34.040Z,990.12
2019-02-19T09:58:37.041Z,990.07
2019-02-19T09:59:34.040Z,990.06
2019-02-19T10:00:34.041Z,990.10
2019-02-19T10:01:34.539Z,990.10
2019-02-19T10:02:55.540Z,990.12
2019-02-19T10:03:38.041Z,990.12
2019-02-19T10:04:34.542Z,990.16
2019-02-19T10:07:06.270Z,990.11
2019-02-19T10:08:27.271Z,990.08
2019-02-19T10:09:09.771Z,990.11
2019-02-19T10:10:27.771Z,990.13
2019-02-19T10:11:06.774Z,990.15
2019-02-19T10:12:27.773Z,990.13
2019-02-19T10:13:06.768Z,990.19
2019-02-19T10:14:11.270Z,990.24
2019-02-19T10:15:28.272Z,990.23
2019-02-19T10:16:28.269Z,990.17
2019-02-19T10:17:07.271Z,990.19
2019-02-19T10:18:28.772Z,990.16
2019-02-19T10:19:07.768Z,990.17
2019-02-19T10:20:11.269Z,990.17
2019-02-19T10:21:07.771Z,990.25
2019-02-19T10:22:29.276Z,990.23
2019-02-19T10:23:08.298Z,990.17
2019-02-19T10:24:08.268Z,990.18
2019-02-19T10:25:33.268Z,990.14
2019-02-19T10:26:08.765Z,990.14
2019-02-19T10:27:08.767Z,990.21
2019-02-19T10:28:08.781Z,990.22
2019-02-19T10:29:08.237Z,990.29
2019-02-19T10:30:35.246Z,990.30
2019-02-19T10:31:08.467Z,990.30
2019-02-19T10:32:09.277Z,990.29
2019-02-19T10:33:30.278Z,990.30
2019-02-19T10:34:09.267Z,990.37
2019-02-19T10:38:17.205Z,990.37
2019-02-19T10:39:17.215Z,990.35
2019-02-19T10:40:17.219Z,990.35
2019-02-19T10:41:17.212Z,990.38
2019-02-19T10:42:41.721Z,990.42
2019-02-19T10:43:38.710Z,990.39
2019-02-19T10:44:17.711Z,990.38
2019-02-19T10:45:17.713Z,990.42
2019-02-19T10:46:39.215Z,990.38
2019-02-19T10:47:18.212Z,990.42
2019-02-19T10:48:21.719Z,990.45
2019-02-19T10:49:18.214Z,990.46
2019-02-19T10:50:18.711Z,990.41
2019-02-19T10:51:20.716Z,990.42
2019-02-19T10:52:39.711Z,990.39
2019-02-19T10:53:22.712Z,990.38
2019-02-19T10:54:19.211Z,990.40
2019-02-19T10:55:19.211Z,990.38
2019-02-19T10:56:19.218Z,990.39
2019-02-19T10:57:19.211Z,990.38
2019-02-19T10:58:22.882Z,990.35
2019-02-19T10:59:23.712Z,990.39
2019-02-19T11:00:19.727Z,990.40
2019-02-19T11:01:19.712Z,990.39
2019-02-19T11:02:20.212Z,990.38
2019-02-19T11:03:20.212Z,990.44
2019-02-19T11:04:20.221Z,990.41
2019-02-19T11:05:23.722Z,990.38
2019-02-19T11:06:20.711Z,990.37
2019-02-19T11:07:19.925Z,990.35
2019-02-19T11:08:20.713Z,990.37
2019-02-19T11:09:20.710Z,990.37
2019-02-19T11:10:45.710Z,990.40
2019-02-19T11:11:21.212Z,990.34
2019-02-19T11:12:21.211Z,990.37
2019-02-19T11:13:21.210Z,990.35
2019-02-19T11:14:21.715Z,990.40
2019-02-19T11:15:46.211Z,990.42
2019-02-19T11:16:21.714Z,990.37
2019-02-19T11:17:21.711Z,990.38
2019-02-19T11:18:28.218Z,990.43
2019-02-19T11:19:22.210Z,990.44
2019-02-19T11:20:43.210Z,990.35
2019-02-19T11:21:25.709Z,990.48
2019-02-19T11:22:22.713Z,990.33
2019-02-19T11:23:22.709Z,990.46
2019-02-19T11:24:22.709Z,990.49
2019-02-19T11:25:22.709Z,990.70
2019-02-19T11:26:26.209Z,990.88
2019-02-19T11:27:23.212Z,990.21
2019-02-19T11:28:23.207Z,990.20
2019-02-19T11:29:23.209Z,990.18
2019-02-19T11:30:23.714Z,990.20
2019-02-19T11:31:30.143Z,990.25
2019-02-19T11:32:23.712Z,990.14
2019-02-19T11:33:23.709Z,990.16
2019-02-19T11:34:24.209Z,990.14
2019-02-19T11:35:24.209Z,990.12
2019-02-19T11:36:49.708Z,990.20
2019-02-19T11:37:24.217Z,990.15
2019-02-19T11:38:24.723Z,990.09
2019-02-19T11:39:45.709Z,990.22
2019-02-19T11:42:00.196Z,990.31
2019-02-19T11:42:56.208Z,990.11
2019-02-19T11:43:56.216Z,990.08
2019-02-19T11:45:17.701Z,990.08
2019-02-19T11:46:17.703Z,990.14
2019-02-19T11:46:56.708Z,990.14
2019-02-19T11:48:21.200Z,990.11
2019-02-19T11:48:56.351Z,990.06
2019-02-19T11:49:58.673Z,990.03
2019-02-19T11:50:57.200Z,990.07
2019-02-19T11:52:03.201Z,990.07
2019-02-19T11:53:01.197Z,989.99
2019-02-19T11:53:57.700Z,990.04
2019-02-19T11:54:57.703Z,990.05
2019-02-19T11:55:57.701Z,989.99
2019-02-19T11:57:19.205Z,989.99
2019-02-19T11:57:58.202Z,989.99
2019-02-19T11:59:01.473Z,990.00
2019-02-19T11:59:58.203Z,990.01
2019-02-19T12:00:58.728Z,990.02
2019-02-19T12:03:30.587Z,989.96
2019-02-19T12:04:33.594Z,989.96
2019-02-19T12:05:30.594Z,989.95
2019-02-19T12:06:31.094Z,989.92
2019-02-19T12:07:31.093Z,989.96
2019-02-19T12:08:38.772Z,989.95
2019-02-19T12:09:35.097Z,990.02
2019-02-19T12:10:31.593Z,989.97
2019-02-19T12:11:31.594Z,990.01
2019-02-19T12:12:31.639Z,990.03
2019-02-19T12:13:32.547Z,990.09
2019-02-19T12:14:35.114Z,990.07
2019-02-19T12:15:53.135Z,990.01
2019-02-19T12:16:32.114Z,990.02
2019-02-19T12:17:32.096Z,989.97
2019-02-19T12:18:32.099Z,989.92
2019-02-19T12:19:38.060Z,989.97
2019-02-19T12:20:34.593Z,989.93
2019-02-19T12:21:32.594Z,989.93
2019-02-19T12:22:32.593Z,990.57
2019-02-19T12:23:54.102Z,990.24
2019-02-19T12:24:37.593Z,989.91
2019-02-19T12:25:33.094Z,989.85
2019-02-19T12:26:33.094Z,989.93
2019-02-19T12:27:33.591Z,990.14
2019-02-19T12:28:33.599Z,990.46
2019-02-19T12:29:33.603Z,990.55
2019-02-19T12:30:37.602Z,989.94
2019-02-19T12:31:34.094Z,989.93
2019-02-19T12:32:34.099Z,990.29
2019-02-19T12:33:34.105Z,990.01
2019-02-19T12:34:34.121Z,990.39
2019-02-19T12:35:34.594Z,989.81
2019-02-19T12:36:38.593Z,989.83
2019-02-19T12:37:34.595Z,989.91
2019-02-19T12:38:36.029Z,989.91
2019-02-19T12:41:06.324Z,989.87
2019-02-19T12:42:31.329Z,989.84
2019-02-19T12:43:06.329Z,989.84
2019-02-19T12:44:06.856Z,989.80
2019-02-19T12:45:28.781Z,989.78
2019-02-19T12:46:27.829Z,989.83
2019-02-19T12:47:06.830Z,989.81
2019-02-19T12:48:11.329Z,989.76
2019-02-19T12:49:07.330Z,989.73
2019-02-19T12:50:07.333Z,989.76
2019-02-19T12:51:08.795Z,989.76
2019-02-19T12:52:07.347Z,989.78
2019-02-19T12:53:32.329Z,989.75
2019-02-19T12:54:12.265Z,989.76
2019-02-19T12:55:07.882Z,989.77
2019-02-19T12:56:07.829Z,989.70
2019-02-19T12:57:07.829Z,989.69
2019-02-19T12:58:29.329Z,989.75
2019-02-19T12:59:26.329Z,989.72
2019-02-19T13:00:07.682Z,989.71
2019-02-19T13:01:29.330Z,989.71
2019-02-19T13:02:08.829Z,989.74
2019-02-19T13:03:08.829Z,989.74
2019-02-19T13:04:08.830Z,989.85
2019-02-19T13:05:12.329Z,990.11
2019-02-19T13:06:30.328Z,989.79
2019-02-19T13:07:09.329Z,989.75
2019-02-19T13:08:30.329Z,989.73
2019-02-19T13:09:09.327Z,989.66
2019-02-19T13:10:13.335Z,989.72
2019-02-19T13:11:09.846Z,989.73
2019-02-19T13:12:11.269Z,989.73
2019-02-19T13:13:09.826Z,989.77
2019-02-19T13:16:06.060Z,989.66
2019-02-19T13:16:41.579Z,989.88
2019-02-19T13:17:41.570Z,989.61
2019-02-19T13:18:42.068Z,989.61
2019-02-19T13:19:42.069Z,989.65
2019-02-19T13:20:46.091Z,989.66
2019-02-19T13:21:42.069Z,989.63
2019-02-19T13:22:44.582Z,989.68